sensor_id;sensor_type;location;lat;lon;timestamp;pressure;altitude;pressure_sealevel;temperature;humidity
18504;BME280;9381;54.244;10.074;2023-03-16T00:00:18;101444.19;;;3.62;88.53
18504;BME280;9381;54.244;10.074;2023-03-16T00:05:18;101439.47;;;3.56;88.44
18504;BME280;9381;54.244;10.074;2023-03-16T00:10:19;101446.34;;;3.41;87.99
18504;BME280;9381;54.244;10.074;2023-03-16T00:15:26;101451.47;;;3.34;88.71
18504;BME280;9381;54.244;10.074;2023-03-16T00:20:26;101453.16;;;3.18;89.08
18504;BME280;9381;54.244;10.074;2023-03-16T00:25:26;101462.06;;;3.09;89.76
18504;BME280;9381;54.244;10.074;2023-03-16T00:30:26;101453.91;;;3.10;89.73
18504;BME280;9381;54.244;10.074;2023-03-16T00:35:27;101451.38;;;3.09;90.38
18504;BME280;9381;54.244;10.074;2023-03-16T00:40:27;101456.84;;;2.90;90.08
18504;BME280;9381;54.244;10.074;2023-03-16T00:45:27;101440.59;;;2.83;90.81
18504;BME280;9381;54.244;10.074;2023-03-16T00:50:28;101449.31;;;2.76;91.74
18504;BME280;9381;54.244;10.074;2023-03-16T00:55:28;101447.66;;;2.75;92.02
18504;BME280;9381;54.244;10.074;2023-03-16T01:00:28;101444.75;;;2.69;91.30
18504;BME280;9381;54.244;10.074;2023-03-16T01:05:29;101453.22;;;2.55;91.19
18504;BME280;9381;54.244;10.074;2023-03-16T01:10:29;101456.66;;;2.47;92.29
18504;BME280;9381;54.244;10.074;2023-03-16T01:15:29;101451.84;;;2.51;91.99
18504;BME280;9381;54.244;10.074;2023-03-16T01:20:30;101452.00;;;2.49;93.43
18504;BME280;9381;54.244;10.074;2023-03-16T01:25:32;101444.53;;;2.53;93.66
18504;BME280;9381;54.244;10.074;2023-03-16T01:30:32;101449.75;;;2.54;93.90
18504;BME280;9381;54.244;10.074;2023-03-16T01:35:34;101446.06;;;2.55;93.33
18504;BME280;9381;54.244;10.074;2023-03-16T01:40:34;101447.66;;;2.48;94.10
18504;BME280;9381;54.244;10.074;2023-03-16T01:50:59;101445.03;;;2.39;95.34
18504;BME280;9381;54.244;10.074;2023-03-16T01:56:02;101443.63;;;2.35;94.92
18504;BME280;9381;54.244;10.074;2023-03-16T02:01:05;101445.16;;;2.37;95.67
18504;BME280;9381;54.244;10.074;2023-03-16T02:06:08;101440.56;;;2.30;96.24
18504;BME280;9381;54.244;10.074;2023-03-16T02:11:11;101441.88;;;2.16;97.08
18504;BME280;9381;54.244;10.074;2023-03-16T02:16:12;101441.59;;;2.19;97.93
18504;BME280;9381;54.244;10.074;2023-03-16T02:27:05;101441.69;;;2.27;98.67
18504;BME280;9381;54.244;10.074;2023-03-16T02:32:08;101440.16;;;2.25;99.83
18504;BME280;9381;54.244;10.074;2023-03-16T02:37:09;101443.69;;;2.25;99.48
18504;BME280;9381;54.244;10.074;2023-03-16T02:42:16;101439.16;;;2.26;100.00
18504;BME280;9381;54.244;10.074;2023-03-16T02:47:35;101434.81;;;2.25;100.00
18504;BME280;9381;54.244;10.074;2023-03-16T02:52:38;101450.09;;;2.32;100.00
18504;BME280;9381;54.244;10.074;2023-03-16T02:57:40;101443.34;;;2.38;100.00
18504;BME280;9381;54.244;10.074;2023-03-16T03:02:40;101445.59;;;2.42;100.00
18504;BME280;9381;54.244;10.074;2023-03-16T03:07:40;101439.94;;;2.45;100.00
18504;BME280;9381;54.244;10.074;2023-03-16T03:12:41;101438.50;;;2.51;100.00
18504;BME280;9381;54.244;10.074;2023-03-16T03:17:41;101446.66;;;2.49;100.00
18504;BME280;9381;54.244;10.074;2023-03-16T03:22:43;101443.72;;;2.52;100.00
18504;BME280;9381;54.244;10.074;2023-03-16T03:27:45;101430.75;;;2.57;100.00
18504;BME280;9381;54.244;10.074;2023-03-16T03:32:45;101433.09;;;2.60;100.00
18504;BME280;9381;54.244;10.074;2023-03-16T03:37:46;101435.72;;;2.70;100.00
18504;BME280;9381;54.244;10.074;2023-03-16T03:42:46;101430.84;;;2.65;100.00
18504;BME280;9381;54.244;10.074;2023-03-16T03:47:47;101434.59;;;2.72;100.00
18504;BME280;9381;54.244;10.074;2023-03-16T03:52:47;101436.16;;;2.92;100.00
18504;BME280;9381;54.244;10.074;2023-03-16T03:57:47;101438.84;;;2.92;100.00
18504;BME280;9381;54.244;10.074;2023-03-16T04:02:48;101438.44;;;2.87;100.00
18504;BME280;9381;54.244;10.074;2023-03-16T04:07:48;101432.41;;;2.85;100.00
18504;BME280;9381;54.244;10.074;2023-03-16T04:12:57;101437.06;;;2.83;100.00
18504;BME280;9381;54.244;10.074;2023-03-16T04:17:58;101430.72;;;2.84;100.00
18504;BME280;9381;54.244;10.074;2023-03-16T04:22:59;101432.56;;;2.83;100.00
18504;BME280;9381;54.244;10.074;2023-03-16T04:27:59;101430.13;;;2.90;100.00
18504;BME280;9381;54.244;10.074;2023-03-16T04:32:59;101431.72;;;3.00;100.00
18504;BME280;9381;54.244;10.074;2023-03-16T04:37:59;101434.56;;;2.99;100.00
18504;BME280;9381;54.244;10.074;2023-03-16T04:43:01;101432.19;;;2.96;100.00
18504;BME280;9381;54.244;10.074;2023-03-16T04:48:01;101430.41;;;2.87;100.00
18504;BME280;9381;54.244;10.074;2023-03-16T04:53:02;101433.25;;;3.03;100.00
18504;BME280;9381;54.244;10.074;2023-03-16T04:58:03;101432.13;;;2.88;100.00
18504;BME280;9381;54.244;10.074;2023-03-16T05:03:04;101440.31;;;2.77;100.00
18504;BME280;9381;54.244;10.074;2023-03-16T05:08:05;101431.63;;;2.75;100.00
18504;BME280;9381;54.244;10.074;2023-03-16T05:13:06;101426.09;;;2.59;100.00
18504;BME280;9381;54.244;10.074;2023-03-16T05:18:06;101432.97;;;2.62;100.00
18504;BME280;9381;54.244;10.074;2023-03-16T05:23:07;101447.56;;;2.67;100.00
18504;BME280;9381;54.244;10.074;2023-03-16T05:28:07;101447.06;;;2.54;100.00
18504;BME280;9381;54.244;10.074;2023-03-16T05:33:08;101449.53;;;2.38;100.00
18504;BME280;9381;54.244;10.074;2023-03-16T05:38:08;101449.75;;;2.45;100.00
18504;BME280;9381;54.244;10.074;2023-03-16T05:43:09;101458.63;;;2.45;100.00
18504;BME280;9381;54.244;10.074;2023-03-16T05:48:09;101455.66;;;2.48;100.00
18504;BME280;9381;54.244;10.074;2023-03-16T05:53:09;101458.63;;;2.45;100.00
18504;BME280;9381;54.244;10.074;2023-03-16T05:58:09;101458.31;;;2.48;100.00
18504;BME280;9381;54.244;10.074;2023-03-16T06:03:10;101456.44;;;2.58;100.00
18504;BME280;9381;54.244;10.074;2023-03-16T06:08:12;101455.88;;;2.64;100.00
18504;BME280;9381;54.244;10.074;2023-03-16T06:13:12;101442.25;;;2.84;100.00
18504;BME280;9381;54.244;10.074;2023-03-16T06:18:12;101445.63;;;2.86;100.00
18504;BME280;9381;54.244;10.074;2023-03-16T06:23:13;101453.19;;;2.91;100.00
18504;BME280;9381;54.244;10.074;2023-03-16T06:28:13;101442.06;;;3.13;100.00
18504;BME280;9381;54.244;10.074;2023-03-16T06:33:13;101456.81;;;3.17;100.00
18504;BME280;9381;54.244;10.074;2023-03-16T06:38:15;101457.28;;;3.12;100.00
18504;BME280;9381;54.244;10.074;2023-03-16T06:43:15;101447.13;;;3.16;100.00
18504;BME280;9381;54.244;10.074;2023-03-16T06:48:15;101445.50;;;3.23;100.00
18504;BME280;9381;54.244;10.074;2023-03-16T06:53:16;101442.91;;;3.48;98.92
18504;BME280;9381;54.244;10.074;2023-03-16T06:58:16;101452.75;;;3.48;97.27
18504;BME280;9381;54.244;10.074;2023-03-16T07:03:16;101458.03;;;3.57;95.38
18504;BME280;9381;54.244;10.074;2023-03-16T07:08:18;101454.25;;;3.68;92.00
18504;BME280;9381;54.244;10.074;2023-03-16T07:13:20;101463.41;;;3.83;89.76
18504;BME280;9381;54.244;10.074;2023-03-16T07:18:20;101463.84;;;3.96;88.97
18504;BME280;9381;54.244;10.074;2023-03-16T07:23:21;101468.78;;;4.08;86.76
18504;BME280;9381;54.244;10.074;2023-03-16T07:28:21;101482.75;;;4.20;87.17
18504;BME280;9381;54.244;10.074;2023-03-16T07:33:22;101476.13;;;4.32;86.31
18504;BME280;9381;54.244;10.074;2023-03-16T07:38:22;101478.50;;;4.35;83.98
18504;BME280;9381;54.244;10.074;2023-03-16T07:43:23;101469.81;;;4.66;83.94
18504;BME280;9381;54.244;10.074;2023-03-16T07:48:23;101472.00;;;4.79;83.78
18504;BME280;9381;54.244;10.074;2023-03-16T07:53:24;101472.03;;;4.87;82.36
18504;BME280;9381;54.244;10.074;2023-03-16T07:58:24;101473.78;;;5.04;82.04
18504;BME280;9381;54.244;10.074;2023-03-16T08:03:25;101473.97;;;5.02;82.06
18504;BME280;9381;54.244;10.074;2023-03-16T08:08:25;101468.16;;;5.39;82.17
18504;BME280;9381;54.244;10.074;2023-03-16T08:13:26;101468.50;;;5.59;81.35
18504;BME280;9381;54.244;10.074;2023-03-16T08:18:28;101464.00;;;5.76;79.46
18504;BME280;9381;54.244;10.074;2023-03-16T08:23:29;101467.56;;;5.92;78.53
18504;BME280;9381;54.244;10.074;2023-03-16T08:28:29;101455.28;;;5.98;78.11
18504;BME280;9381;54.244;10.074;2023-03-16T08:33:30;101450.41;;;6.17;76.43
18504;BME280;9381;54.244;10.074;2023-03-16T08:38:31;101457.97;;;6.22;74.19
18504;BME280;9381;54.244;10.074;2023-03-16T08:43:33;101474.34;;;6.51;73.52
18504;BME280;9381;54.244;10.074;2023-03-16T08:48:33;101462.72;;;6.58;71.52
18504;BME280;9381;54.244;10.074;2023-03-16T08:53:34;101471.78;;;6.65;70.96
18504;BME280;9381;54.244;10.074;2023-03-16T08:58:35;101480.31;;;6.69;69.52
18504;BME280;9381;54.244;10.074;2023-03-16T09:03:36;101470.31;;;6.93;69.54
18504;BME280;9381;54.244;10.074;2023-03-16T09:08:36;101466.00;;;6.76;69.33
18504;BME280;9381;54.244;10.074;2023-03-16T09:13:40;101464.16;;;6.85;68.53
18504;BME280;9381;54.244;10.074;2023-03-16T09:18:42;101450.22;;;6.81;69.26
18504;BME280;9381;54.244;10.074;2023-03-16T09:23:42;101459.22;;;6.88;68.56
18504;BME280;9381;54.244;10.074;2023-03-16T09:28:43;101460.19;;;6.95;68.04
18504;BME280;9381;54.244;10.074;2023-03-16T09:33:43;101448.03;;;7.07;67.68
18504;BME280;9381;54.244;10.074;2023-03-16T09:38:43;101452.31;;;7.24;68.18
18504;BME280;9381;54.244;10.074;2023-03-16T09:44:08;101439.66;;;7.55;67.93
18504;BME280;9381;54.244;10.074;2023-03-16T09:49:16;101442.41;;;7.47;66.17
18504;BME280;9381;54.244;10.074;2023-03-16T09:54:40;101433.50;;;7.84;65.56
18504;BME280;9381;54.244;10.074;2023-03-16T09:59:44;101428.06;;;8.06;63.15
18504;BME280;9381;54.244;10.074;2023-03-16T10:04:56;101413.84;;;8.49;64.55
18504;BME280;9381;54.244;10.074;2023-03-16T10:10:29;101413.19;;;8.97;62.29
18504;BME280;9381;54.244;10.074;2023-03-16T10:15:28;101440.78;;;9.28;60.37
18504;BME280;9381;54.244;10.074;2023-03-16T10:20:33;101412.22;;;9.19;60.46
18504;BME280;9381;54.244;10.074;2023-03-16T10:25:45;101415.97;;;9.18;60.00
18504;BME280;9381;54.244;10.074;2023-03-16T10:30:47;101401.88;;;9.22;60.62
18504;BME280;9381;54.244;10.074;2023-03-16T10:41:27;101398.97;;;9.03;60.11
18504;BME280;9381;54.244;10.074;2023-03-16T10:46:45;101402.19;;;9.13;60.69
18504;BME280;9381;54.244;10.074;2023-03-16T10:51:47;101389.34;;;9.15;58.40
18504;BME280;9381;54.244;10.074;2023-03-16T10:56:48;101397.13;;;9.45;58.92
18504;BME280;9381;54.244;10.074;2023-03-16T11:01:49;101384.91;;;9.70;60.69
18504;BME280;9381;54.244;10.074;2023-03-16T11:06:55;101383.81;;;9.65;60.21
18504;BME280;9381;54.244;10.074;2023-03-16T11:11:55;101367.66;;;9.99;59.75
18504;BME280;9381;54.244;10.074;2023-03-16T11:17:09;101366.19;;;10.24;56.18
18504;BME280;9381;54.244;10.074;2023-03-16T11:22:31;101359.53;;;10.60;51.98
18504;BME280;9381;54.244;10.074;2023-03-16T11:27:45;101345.94;;;10.47;52.50
18504;BME280;9381;54.244;10.074;2023-03-16T11:32:49;101350.63;;;10.73;49.03
18504;BME280;9381;54.244;10.074;2023-03-16T11:38:00;101320.59;;;10.55;49.52
18504;BME280;9381;54.244;10.074;2023-03-16T11:43:24;101329.72;;;10.54;45.71
18504;BME280;9381;54.244;10.074;2023-03-16T11:48:31;101315.13;;;10.08;46.21
18504;BME280;9381;54.244;10.074;2023-03-16T11:59:06;101308.03;;;10.34;47.73
18504;BME280;9381;54.244;10.074;2023-03-16T12:14:40;101284.91;;;9.98;46.89
18504;BME280;9381;54.244;10.074;2023-03-16T12:20:02;101280.09;;;10.21;47.18
18504;BME280;9381;54.244;10.074;2023-03-16T12:25:13;101286.28;;;10.15;44.64
18504;BME280;9381;54.244;10.074;2023-03-16T12:30:43;101268.06;;;10.30;46.01
18504;BME280;9381;54.244;10.074;2023-03-16T12:35:55;101275.41;;;10.49;45.46
18504;BME280;9381;54.244;10.074;2023-03-16T12:46:12;101247.88;;;11.05;44.97
18504;BME280;9381;54.244;10.074;2023-03-16T12:51:14;101236.19;;;10.92;45.38
18504;BME280;9381;54.244;10.074;2023-03-16T12:56:17;101232.03;;;10.89;45.70
18504;BME280;9381;54.244;10.074;2023-03-16T13:01:25;101209.94;;;10.86;44.99
18504;BME280;9381;54.244;10.074;2023-03-16T13:06:31;101203.28;;;10.88;45.92
18504;BME280;9381;54.244;10.074;2023-03-16T13:11:45;101222.56;;;10.53;44.30
18504;BME280;9381;54.244;10.074;2023-03-16T13:16:49;101205.28;;;10.41;45.18
18504;BME280;9381;54.244;10.074;2023-03-16T13:22:01;101201.50;;;10.29;45.02
18504;BME280;9381;54.244;10.074;2023-03-16T13:27:12;101189.88;;;10.35;45.15
18504;BME280;9381;54.244;10.074;2023-03-16T13:32:17;101184.88;;;10.32;45.28
18504;BME280;9381;54.244;10.074;2023-03-16T13:37:20;101168.66;;;10.32;44.67
18504;BME280;9381;54.244;10.074;2023-03-16T13:42:22;101146.22;;;10.51;46.25
18504;BME280;9381;54.244;10.074;2023-03-16T13:47:26;101167.84;;;10.44;44.83
18504;BME280;9381;54.244;10.074;2023-03-16T13:52:29;101157.03;;;10.38;43.79
18504;BME280;9381;54.244;10.074;2023-03-16T13:57:35;101144.94;;;10.34;43.95
18504;BME280;9381;54.244;10.074;2023-03-16T14:02:41;101143.69;;;10.23;41.71
18504;BME280;9381;54.244;10.074;2023-03-16T14:07:45;101139.94;;;10.24;41.81
18504;BME280;9381;54.244;10.074;2023-03-16T14:12:53;101118.88;;;10.07;40.29
18504;BME280;9381;54.244;10.074;2023-03-16T14:18:12;101119.03;;;9.99;40.93
18504;BME280;9381;54.244;10.074;2023-03-16T14:23:17;101106.03;;;10.22;41.35
18504;BME280;9381;54.244;10.074;2023-03-16T14:28:32;101119.56;;;10.22;41.07
18504;BME280;9381;54.244;10.074;2023-03-16T14:33:35;101090.63;;;10.16;40.65
18504;BME280;9381;54.244;10.074;2023-03-16T14:38:37;101093.34;;;10.16;39.30
18504;BME280;9381;54.244;10.074;2023-03-16T14:43:50;101099.59;;;10.23;40.68
18504;BME280;9381;54.244;10.074;2023-03-16T14:48:59;101089.19;;;10.20;40.04
18504;BME280;9381;54.244;10.074;2023-03-16T14:54:01;101097.69;;;10.04;38.69
18504;BME280;9381;54.244;10.074;2023-03-16T14:59:01;101074.56;;;10.01;39.04
18504;BME280;9381;54.244;10.074;2023-03-16T15:04:03;101064.97;;;9.86;38.90
18504;BME280;9381;54.244;10.074;2023-03-16T15:09:04;101065.75;;;9.80;38.27
18504;BME280;9381;54.244;10.074;2023-03-16T15:14:10;101062.03;;;9.81;39.20
18504;BME280;9381;54.244;10.074;2023-03-16T15:19:36;101066.38;;;9.75;39.25
18504;BME280;9381;54.244;10.074;2023-03-16T15:24:36;101070.72;;;9.70;39.36
18504;BME280;9381;54.244;10.074;2023-03-16T15:29:37;101047.69;;;9.74;40.90
18504;BME280;9381;54.244;10.074;2023-03-16T15:34:37;101053.28;;;9.66;40.89
18504;BME280;9381;54.244;10.074;2023-03-16T15:39:39;101020.63;;;9.61;40.38
18504;BME280;9381;54.244;10.074;2023-03-16T15:44:39;101030.38;;;9.55;41.53
18504;BME280;9381;54.244;10.074;2023-03-16T15:49:40;101047.00;;;9.59;42.19
18504;BME280;9381;54.244;10.074;2023-03-16T15:54:41;101043.44;;;9.52;41.06
18504;BME280;9381;54.244;10.074;2023-03-16T15:59:42;101036.22;;;9.59;41.15
18504;BME280;9381;54.244;10.074;2023-03-16T16:04:42;101037.56;;;9.35;40.93
18504;BME280;9381;54.244;10.074;2023-03-16T16:09:42;101035.31;;;9.45;41.95
18504;BME280;9381;54.244;10.074;2023-03-16T16:14:43;101041.16;;;9.49;42.41
18504;BME280;9381;54.244;10.074;2023-03-16T16:19:43;101048.00;;;9.45;42.91
18504;BME280;9381;54.244;10.074;2023-03-16T16:24:44;101046.97;;;9.46;44.48
18504;BME280;9381;54.244;10.074;2023-03-16T16:29:45;101052.75;;;9.43;43.93
18504;BME280;9381;54.244;10.074;2023-03-16T16:34:46;101045.06;;;9.40;44.86
18504;BME280;9381;54.244;10.074;2023-03-16T16:39:46;101044.81;;;9.35;44.79
18504;BME280;9381;54.244;10.074;2023-03-16T16:44:47;101058.09;;;9.30;46.17
18504;BME280;9381;54.244;10.074;2023-03-16T16:49:47;101038.13;;;9.18;45.73
18504;BME280;9381;54.244;10.074;2023-03-16T16:54:48;101035.59;;;9.10;45.05
18504;BME280;9381;54.244;10.074;2023-03-16T16:59:49;101032.63;;;9.05;45.33
18504;BME280;9381;54.244;10.074;2023-03-16T17:04:50;101001.91;;;8.99;45.26
18504;BME280;9381;54.244;10.074;2023-03-16T17:09:50;101028.44;;;8.96;45.70
18504;BME280;9381;54.244;10.074;2023-03-16T17:14:51;101029.31;;;9.03;47.51
18504;BME280;9381;54.244;10.074;2023-03-16T17:19:51;101010.19;;;8.98;47.73
18504;BME280;9381;54.244;10.074;2023-03-16T17:24:52;101000.13;;;8.79;48.79
18504;BME280;9381;54.244;10.074;2023-03-16T17:29:53;101003.06;;;8.84;49.44
18504;BME280;9381;54.244;10.074;2023-03-16T17:34:55;100996.75;;;8.70;48.44
18504;BME280;9381;54.244;10.074;2023-03-16T17:39:55;100991.00;;;8.80;48.78
18504;BME280;9381;54.244;10.074;2023-03-16T17:44:56;100979.72;;;8.70;48.63
18504;BME280;9381;54.244;10.074;2023-03-16T17:49:57;100982.25;;;8.71;49.22
18504;BME280;9381;54.244;10.074;2023-03-16T17:54:57;100973.31;;;8.71;50.25
18504;BME280;9381;54.244;10.074;2023-03-16T18:00:03;100968.09;;;8.63;49.31
18504;BME280;9381;54.244;10.074;2023-03-16T18:05:22;100969.75;;;8.64;49.46
18504;BME280;9381;54.244;10.074;2023-03-16T18:10:25;100958.09;;;8.57;49.87
18504;BME280;9381;54.244;10.074;2023-03-16T18:15:30;100975.31;;;8.56;49.79
18504;BME280;9381;54.244;10.074;2023-03-16T18:20:32;100946.03;;;8.53;50.15
18504;BME280;9381;54.244;10.074;2023-03-16T18:25:36;100948.34;;;8.56;50.50
18504;BME280;9381;54.244;10.074;2023-03-16T18:30:42;100936.06;;;8.47;50.99
18504;BME280;9381;54.244;10.074;2023-03-16T18:35:43;100939.31;;;8.36;51.18
18504;BME280;9381;54.244;10.074;2023-03-16T18:40:43;100944.28;;;8.39;51.78
18504;BME280;9381;54.244;10.074;2023-03-16T18:45:44;100941.75;;;8.31;52.77
18504;BME280;9381;54.244;10.074;2023-03-16T18:50:45;100951.78;;;8.44;52.83
18504;BME280;9381;54.244;10.074;2023-03-16T18:55:45;100954.63;;;8.36;52.68
18504;BME280;9381;54.244;10.074;2023-03-16T19:00:57;100958.81;;;8.38;53.08
18504;BME280;9381;54.244;10.074;2023-03-16T19:05:59;100959.84;;;8.37;53.31
18504;BME280;9381;54.244;10.074;2023-03-16T19:11:00;100943.00;;;8.35;54.33
18504;BME280;9381;54.244;10.074;2023-03-16T19:16:02;100929.88;;;8.26;54.22
18504;BME280;9381;54.244;10.074;2023-03-16T19:21:03;100935.03;;;8.21;54.65
18504;BME280;9381;54.244;10.074;2023-03-16T19:26:03;100937.19;;;8.32;55.85
18504;BME280;9381;54.244;10.074;2023-03-16T19:31:13;100935.47;;;8.24;55.01
18504;BME280;9381;54.244;10.074;2023-03-16T19:36:18;100921.78;;;8.19;57.21
18504;BME280;9381;54.244;10.074;2023-03-16T19:41:24;100921.81;;;8.26;56.40
18504;BME280;9381;54.244;10.074;2023-03-16T19:46:27;100901.09;;;8.26;57.52
18504;BME280;9381;54.244;10.074;2023-03-16T19:51:27;100895.31;;;8.29;57.44
18504;BME280;9381;54.244;10.074;2023-03-16T19:56:29;100903.78;;;8.26;57.82
18504;BME280;9381;54.244;10.074;2023-03-16T20:01:30;100894.91;;;8.32;58.05
18504;BME280;9381;54.244;10.074;2023-03-16T20:06:31;100899.81;;;8.22;58.41
18504;BME280;9381;54.244;10.074;2023-03-16T20:11:32;100898.25;;;8.13;59.50
18504;BME280;9381;54.244;10.074;2023-03-16T20:16:34;100885.72;;;8.20;58.99
18504;BME280;9381;54.244;10.074;2023-03-16T20:21:35;100886.84;;;8.11;59.48
18504;BME280;9381;54.244;10.074;2023-03-16T20:26:35;100876.97;;;8.18;59.49
18504;BME280;9381;54.244;10.074;2023-03-16T20:31:36;100874.78;;;8.07;58.14
18504;BME280;9381;54.244;10.074;2023-03-16T20:36:36;100879.00;;;8.16;59.58
18504;BME280;9381;54.244;10.074;2023-03-16T20:41:37;100880.31;;;8.20;58.42
18504;BME280;9381;54.244;10.074;2023-03-16T20:46:38;100871.03;;;8.23;57.78
18504;BME280;9381;54.244;10.074;2023-03-16T20:51:40;100858.47;;;8.15;59.10
18504;BME280;9381;54.244;10.074;2023-03-16T20:56:40;100848.63;;;8.22;58.24
18504;BME280;9381;54.244;10.074;2023-03-16T21:01:41;100847.34;;;8.18;58.88
18504;BME280;9381;54.244;10.074;2023-03-16T21:06:44;100843.75;;;8.11;58.01
18504;BME280;9381;54.244;10.074;2023-03-16T21:11:48;100838.03;;;8.21;58.08
18504;BME280;9381;54.244;10.074;2023-03-16T21:16:49;100840.09;;;8.19;57.89
18504;BME280;9381;54.244;10.074;2023-03-16T21:21:49;100822.72;;;8.21;58.54
18504;BME280;9381;54.244;10.074;2023-03-16T21:26:50;100826.16;;;8.15;57.97
18504;BME280;9381;54.244;10.074;2023-03-16T21:31:50;100826.75;;;8.11;57.96
18504;BME280;9381;54.244;10.074;2023-03-16T21:36:51;100813.59;;;8.22;57.90
18504;BME280;9381;54.244;10.074;2023-03-16T21:41:52;100814.16;;;8.18;58.36
18504;BME280;9381;54.244;10.074;2023-03-16T21:46:52;100805.19;;;8.11;58.89
18504;BME280;9381;54.244;10.074;2023-03-16T21:51:53;100820.53;;;8.10;58.25
18504;BME280;9381;54.244;10.074;2023-03-16T21:56:53;100823.09;;;8.18;58.76
18504;BME280;9381;54.244;10.074;2023-03-16T22:01:53;100814.31;;;8.10;58.51
18504;BME280;9381;54.244;10.074;2023-03-16T22:06:54;100787.38;;;8.10;58.55
18504;BME280;9381;54.244;10.074;2023-03-16T22:11:54;100776.97;;;8.00;59.42
18504;BME280;9381;54.244;10.074;2023-03-16T22:16:55;100781.72;;;7.98;58.87
18504;BME280;9381;54.244;10.074;2023-03-16T22:21:56;100764.47;;;7.86;59.39
18504;BME280;9381;54.244;10.074;2023-03-16T22:26:56;100759.25;;;7.85;60.11
18504;BME280;9381;54.244;10.074;2023-03-16T22:32:02;100747.88;;;7.83;60.19
18504;BME280;9381;54.244;10.074;2023-03-16T22:37:04;100758.78;;;7.75;60.14
18504;BME280;9381;54.244;10.074;2023-03-16T22:47:30;100743.69;;;7.80;60.73
18504;BME280;9381;54.244;10.074;2023-03-16T22:52:36;100731.53;;;7.84;60.99
18504;BME280;9381;54.244;10.074;2023-03-16T22:57:36;100723.78;;;7.75;60.52
18504;BME280;9381;54.244;10.074;2023-03-16T23:02:36;100720.28;;;7.74;61.14
18504;BME280;9381;54.244;10.074;2023-03-16T23:07:37;100718.03;;;7.78;61.05
18504;BME280;9381;54.244;10.074;2023-03-16T23:12:37;100715.78;;;7.81;61.55
18504;BME280;9381;54.244;10.074;2023-03-16T23:17:38;100708.88;;;7.72;62.35
18504;BME280;9381;54.244;10.074;2023-03-16T23:22:39;100716.53;;;7.69;61.11
18504;BME280;9381;54.244;10.074;2023-03-16T23:27:40;100713.59;;;7.70;62.71
18504;BME280;9381;54.244;10.074;2023-03-16T23:32:42;100720.06;;;7.76;62.23
18504;BME280;9381;54.244;10.074;2023-03-16T23:37:42;100712.78;;;7.70;61.86
18504;BME280;9381;54.244;10.074;2023-03-16T23:42:44;100706.44;;;7.84;61.85
18504;BME280;9381;54.244;10.074;2023-03-16T23:47:46;100691.09;;;7.78;61.63
18504;BME280;9381;54.244;10.074;2023-03-16T23:52:47;100689.38;;;7.70;62.55
18504;BME280;9381;54.244;10.074;2023-03-16T23:57:47;100686.50;;;7.72;62.51
